createdAt,value
2022-08-19T00:01:04.720Z,20.29
2022-08-19T00:03:06.540Z,20.27
2022-08-19T00:05:08.381Z,20.23
2022-08-19T00:07:09.800Z,20.26
2022-08-19T00:09:11.571Z,20.11
2022-08-19T00:11:15.083Z,19.97
2022-08-19T00:13:14.293Z,19.84
2022-08-19T00:15:15.315Z,19.71
2022-08-19T00:17:16.214Z,19.69
2022-08-19T00:19:17.949Z,19.59
2022-08-19T00:21:19.796Z,19.51
2022-08-19T00:23:21.484Z,19.42
2022-08-19T00:25:29.978Z,19.37
2022-08-19T00:27:25.480Z,19.41
2022-08-19T00:29:25.372Z,19.41
2022-08-19T00:31:27.239Z,19.38
2022-08-19T00:33:28.604Z,19.33
2022-08-19T00:35:29.626Z,19.28
2022-08-19T00:37:30.698Z,19.24
2022-08-19T00:39:32.507Z,19.25
2022-08-19T00:41:33.956Z,19.19
2022-08-19T00:43:35.542Z,19.14
2022-08-19T00:45:37.054Z,19.04
2022-08-19T00:47:38.880Z,18.94
2022-08-19T00:49:40.068Z,18.9
2022-08-19T00:51:41.152Z,18.86
2022-08-19T00:53:42.703Z,18.82
2022-08-19T00:55:43.856Z,18.83
2022-08-19T00:57:44.797Z,18.86
2022-08-19T00:59:53.312Z,18.86
2022-08-19T01:01:47.385Z,18.82
2022-08-19T01:03:57.372Z,18.87
2022-08-19T01:05:49.453Z,18.92
2022-08-19T01:07:51.043Z,18.98
2022-08-19T01:09:52.462Z,19.02
2022-08-19T01:11:53.562Z,19.02
2022-08-19T01:13:54.493Z,18.93
2022-08-19T01:15:56.307Z,18.89
2022-08-19T01:17:58.190Z,18.84
2022-08-19T01:18:41.965Z,18.8
2022-08-19T01:20:42.872Z,18.75
2022-08-19T01:22:43.978Z,18.76
2022-08-19T01:24:47.464Z,18.82
2022-08-19T01:26:46.873Z,18.84
2022-08-19T01:28:47.878Z,18.81
2022-08-19T01:30:50.889Z,18.78
2022-08-19T01:34:52.875Z,18.71
2022-08-19T01:36:54.593Z,18.71
2022-08-19T01:38:56.152Z,18.79
2022-08-19T01:40:57.665Z,18.82
2022-08-19T01:42:59.219Z,18.86
2022-08-19T01:45:00.377Z,18.93
2022-08-19T01:47:02.247Z,18.89
2022-08-19T01:49:03.882Z,18.82
2022-08-19T01:51:05.705Z,18.82
2022-08-19T01:53:07.661Z,18.76
2022-08-19T01:55:08.407Z,18.66
2022-08-19T01:57:09.895Z,18.56
2022-08-19T01:59:11.278Z,18.54
2022-08-19T02:01:12.341Z,18.5
2022-08-19T02:03:13.347Z,18.47
2022-08-19T02:05:14.362Z,18.57
2022-08-19T02:07:15.933Z,18.6
2022-08-19T02:09:17.772Z,18.6
2022-08-19T02:11:19.150Z,18.62
2022-08-19T02:13:21.055Z,18.56
2022-08-19T02:17:22.909Z,18.46
2022-08-19T02:19:24.509Z,18.47
2022-08-19T02:21:25.631Z,18.46
2022-08-19T02:23:27.167Z,18.44
2022-08-19T02:25:28.810Z,18.38
2022-08-19T02:27:30.392Z,18.35
2022-08-19T02:29:31.777Z,18.44
2022-08-19T02:31:33.106Z,18.44
2022-08-19T02:33:34.233Z,18.43
2022-08-19T02:35:35.284Z,18.39
2022-08-19T02:37:36.620Z,18.39
2022-08-19T02:39:38.036Z,18.44
2022-08-19T02:41:39.314Z,18.42
2022-08-19T02:43:44.384Z,18.41
2022-08-19T02:45:42.105Z,18.4
2022-08-19T02:47:43.287Z,18.45
2022-08-19T02:49:45.140Z,18.46
2022-08-19T02:51:46.340Z,18.42
2022-08-19T02:53:47.865Z,18.37
2022-08-19T02:55:49.403Z,18.39
2022-08-19T02:57:50.916Z,18.34
2022-08-19T02:59:52.470Z,18.26
2022-08-19T03:01:53.955Z,18.22
2022-08-19T03:03:55.739Z,18.15
2022-08-19T03:05:57.293Z,18.16
2022-08-19T03:07:57.673Z,18.17
2022-08-19T03:09:58.643Z,18.23
2022-08-19T03:12:00.058Z,18.22
2022-08-19T03:14:01.842Z,18.31
2022-08-19T03:16:03.287Z,18.32
2022-08-19T03:18:05.051Z,18.41
2022-08-19T03:20:06.631Z,18.4
2022-08-19T03:22:08.219Z,18.46
2022-08-19T03:24:09.530Z,18.44
2022-08-19T03:26:16.318Z,18.39
2022-08-19T03:28:11.345Z,18.34
2022-08-19T03:30:23.296Z,18.38
2022-08-19T03:32:15.689Z,18.37
2022-08-19T03:46:24.112Z,18.45
2022-08-19T03:48:25.012Z,18.43
2022-08-19T03:50:25.792Z,18.41
2022-08-19T03:52:26.797Z,18.42
2022-08-19T03:54:27.905Z,18.35
2022-08-19T03:58:30.643Z,18.3
2022-08-19T04:00:31.579Z,18.21
2022-08-19T04:02:33.190Z,18.11
2022-08-19T04:04:34.503Z,18.09
2022-08-19T04:06:36.112Z,18.08
2022-08-19T04:08:37.495Z,18.07
2022-08-19T04:10:39.323Z,18.07
2022-08-19T04:12:40.647Z,18.04
2022-08-19T04:14:41.817Z,18.08
2022-08-19T04:16:43.259Z,18.12
2022-08-19T04:18:44.428Z,18.1
2022-08-19T04:20:46.016Z,18.04
2022-08-19T04:22:46.970Z,18
2022-08-19T04:24:48.044Z,17.96
2022-08-19T04:26:49.516Z,17.86
2022-08-19T04:28:50.561Z,17.89
2022-08-19T04:30:52.053Z,17.99
2022-08-19T04:32:53.656Z,18.08
2022-08-19T04:35:01.812Z,18.12
2022-08-19T04:36:56.486Z,18.18
2022-08-19T04:38:57.801Z,18.23
2022-08-19T04:40:59.015Z,18.28
2022-08-19T04:42:59.890Z,18.29
2022-08-19T04:45:01.521Z,18.32
2022-08-19T04:47:02.745Z,18.36
2022-08-19T04:49:10.646Z,18.4
2022-08-19T04:51:05.021Z,18.41
2022-08-19T04:53:06.819Z,18.47
2022-08-19T04:55:08.086Z,18.48
2022-08-19T04:57:08.971Z,18.55
2022-08-19T04:59:10.378Z,18.59
2022-08-19T05:01:11.364Z,18.66
2022-08-19T05:03:12.366Z,18.72
2022-08-19T05:05:13.230Z,18.81
2022-08-19T05:07:14.954Z,18.78
2022-08-19T05:09:16.826Z,18.76
2022-08-19T05:11:18.392Z,18.77
2022-08-19T05:13:20.131Z,18.78
2022-08-19T05:15:21.390Z,18.77
2022-08-19T05:17:28.369Z,18.76
2022-08-19T05:19:23.687Z,18.82
2022-08-19T05:21:24.901Z,18.81
2022-08-19T05:23:25.786Z,18.82
2022-08-19T05:25:27.003Z,18.83
2022-08-19T05:29:33.457Z,18.97
2022-08-19T05:31:30.615Z,19.06
2022-08-19T05:33:31.668Z,19.1
2022-08-19T05:35:34.572Z,19.13
2022-08-19T05:37:34.747Z,19.09
2022-08-19T05:39:36.269Z,19.08
2022-08-19T05:41:37.177Z,19.02
2022-08-19T05:43:38.978Z,19.01
2022-08-19T05:45:40.287Z,19.04
2022-08-19T05:47:42.235Z,19.02
2022-08-19T05:49:43.396Z,19.02
2022-08-19T05:51:44.305Z,19.04
2022-08-19T05:53:46.034Z,18.97
2022-08-19T05:55:46.884Z,18.96
2022-08-19T05:57:47.899Z,19.02
2022-08-19T05:59:49.502Z,19.02
2022-08-19T06:01:50.759Z,19.06
2022-08-19T06:03:51.718Z,19.05
2022-08-19T06:05:53.236Z,19.11
2022-08-19T06:07:54.855Z,19.14
2022-08-19T06:09:59.767Z,19.27
2022-08-19T06:11:57.454Z,19.3
2022-08-19T06:13:59.873Z,19.35
2022-08-19T06:16:00.196Z,19.42
2022-08-19T06:18:01.821Z,19.51
2022-08-19T06:20:03.206Z,19.55
2022-08-19T06:22:04.372Z,19.56
2022-08-19T06:24:05.454Z,19.59
2022-08-19T06:26:06.311Z,19.61
2022-08-19T06:28:15.742Z,19.65
2022-08-19T06:30:09.700Z,19.65
2022-08-19T06:32:11.409Z,19.71
2022-08-19T06:34:12.944Z,19.74
2022-08-19T06:36:14.195Z,19.75
2022-08-19T06:38:15.705Z,19.79
2022-08-19T06:40:16.860Z,19.82
2022-08-19T06:42:18.514Z,19.82
2022-08-19T06:44:19.931Z,19.86
2022-08-19T06:46:20.992Z,19.85
2022-08-19T06:48:22.419Z,19.9
2022-08-19T06:50:24.976Z,19.93
2022-08-19T06:52:25.074Z,19.94
2022-08-19T06:54:26.102Z,19.99
2022-08-19T06:56:27.053Z,20.05
2022-08-19T06:58:28.235Z,20.14
2022-08-19T07:02:31.262Z,20.31
2022-08-19T07:04:32.984Z,20.29
2022-08-19T07:06:43.794Z,20.35
2022-08-19T07:10:37.428Z,20.51
2022-08-19T07:12:38.674Z,20.63
2022-08-19T07:14:39.825Z,20.76
2022-08-19T07:16:43.061Z,20.73
2022-08-19T07:18:43.901Z,20.76
2022-08-19T07:20:44.039Z,20.82
2022-08-19T07:22:45.140Z,20.85
2022-08-19T07:24:51.034Z,20.75
2022-08-19T07:26:51.737Z,20.62
2022-08-19T07:28:51.472Z,20.76
2022-08-19T07:30:50.814Z,20.84
2022-08-19T07:32:51.875Z,20.88
2022-08-19T07:34:52.742Z,20.87
2022-08-19T07:36:53.960Z,20.85
2022-08-19T07:38:55.327Z,20.88
2022-08-19T07:40:57.140Z,20.93
2022-08-19T07:42:58.589Z,20.86
2022-08-19T07:44:59.982Z,20.84
2022-08-19T07:47:01.732Z,20.94
2022-08-19T07:49:02.834Z,21.02
2022-08-19T07:51:03.945Z,21.02
2022-08-19T07:53:05.473Z,20.99
2022-08-19T07:55:07.066Z,20.97
2022-08-19T07:57:07.939Z,20.89
2022-08-19T07:59:09.401Z,21
2022-08-19T08:01:10.503Z,21.05
2022-08-19T08:03:11.934Z,21.13
2022-08-19T08:03:55.658Z,21.13
2022-08-19T08:05:56.575Z,21.07
2022-08-19T08:07:57.475Z,20.91
2022-08-19T08:09:58.382Z,20.88
2022-08-19T08:12:04.905Z,20.87
2022-08-19T08:14:04.333Z,20.91
2022-08-19T08:16:02.652Z,21
2022-08-19T08:18:03.590Z,21.09
2022-08-19T08:20:05.112Z,21.11
2022-08-19T08:22:06.057Z,21.08
2022-08-19T08:24:07.441Z,21.07
2022-08-19T08:26:08.738Z,21.2
2022-08-19T08:28:09.726Z,21.3
2022-08-19T08:30:11.132Z,21.33
2022-08-19T08:32:13.930Z,21.34
2022-08-19T08:34:13.061Z,21.36
2022-08-19T08:36:14.078Z,21.38
2022-08-19T08:38:15.493Z,21.4
2022-08-19T08:40:17.181Z,21.34
2022-08-19T08:42:18.555Z,21.33
2022-08-19T08:44:20.274Z,21.28
2022-08-19T08:46:31.229Z,21.29
2022-08-19T08:48:24.099Z,21.36
2022-08-19T08:50:23.773Z,21.51
2022-08-19T08:52:25.198Z,21.57
2022-08-19T08:54:26.437Z,21.72
2022-08-19T08:56:27.584Z,21.74
2022-08-19T08:58:28.477Z,21.87
2022-08-19T09:00:30.202Z,22.1
2022-08-19T09:02:31.537Z,22.23
2022-08-19T09:04:32.976Z,22.14
2022-08-19T09:06:34.250Z,22.18
2022-08-19T09:08:35.487Z,22.36
2022-08-19T09:10:44.120Z,22.6
2022-08-19T09:12:38.108Z,22.73
2022-08-19T09:14:50.061Z,22.77
2022-08-19T09:16:41.041Z,22.55
2022-08-19T09:18:42.102Z,22.62
2022-08-19T09:20:43.519Z,22.66
2022-08-19T09:22:44.682Z,22.61
2022-08-19T09:24:45.802Z,22.68
2022-08-19T09:26:47.724Z,22.58
2022-08-19T09:28:48.716Z,22.73
2022-08-19T09:30:49.978Z,22.56
2022-08-19T09:32:52.776Z,22.54
2022-08-19T09:34:52.101Z,22.6
2022-08-19T09:36:53.845Z,22.51
2022-08-19T09:38:55.376Z,22.66
2022-08-19T09:40:56.566Z,22.69
2022-08-19T09:42:57.703Z,22.79
2022-08-19T09:44:58.571Z,22.72
2022-08-19T09:46:59.448Z,22.84
2022-08-19T09:49:03.101Z,22.76
2022-08-19T09:51:01.802Z,22.88
2022-08-19T09:53:03.143Z,22.93
2022-08-19T09:55:07.198Z,22.92
2022-08-19T09:57:07.654Z,23.05
2022-08-19T09:59:06.995Z,23.06
2022-08-19T10:01:08.548Z,23.17
2022-08-19T10:03:09.298Z,23.33
2022-08-19T10:05:10.672Z,23.2
2022-08-19T10:07:11.598Z,22.89
2022-08-19T10:09:12.579Z,23.11
2022-08-19T10:11:27.695Z,22.88
2022-08-19T10:13:16.000Z,22.87
2022-08-19T10:15:17.728Z,22.96
2022-08-19T10:17:19.898Z,22.89
2022-08-19T10:19:25.397Z,22.85
2022-08-19T10:21:21.732Z,22.78
2022-08-19T10:23:23.207Z,22.66
2022-08-19T10:25:24.936Z,22.57
2022-08-19T10:27:26.425Z,22.77
2022-08-19T10:29:31.750Z,22.78
2022-08-19T10:32:00.261Z,22.94
2022-08-19T10:33:39.090Z,23.05
2022-08-19T10:35:30.948Z,23.07
2022-08-19T10:37:32.468Z,23.21
2022-08-19T10:39:42.402Z,23.29
2022-08-19T10:41:35.352Z,23.23
2022-08-19T10:43:36.183Z,23.32
2022-08-19T10:45:37.224Z,23.45
2022-08-19T10:47:38.142Z,23.23
2022-08-19T10:49:39.080Z,23.09
2022-08-19T10:51:42.317Z,23.05
2022-08-19T10:53:41.541Z,22.9
2022-08-19T10:55:42.986Z,23
2022-08-19T10:58:01.603Z,23.09
2022-08-19T10:59:45.893Z,23.17
2022-08-19T11:01:46.780Z,23.12
2022-08-19T11:03:47.892Z,23.07
2022-08-19T11:05:49.280Z,23.13
2022-08-19T11:07:50.668Z,23.14
2022-08-19T11:09:51.665Z,23.06
2022-08-19T11:11:52.513Z,23.13
2022-08-19T11:13:54.300Z,23.12
2022-08-19T11:15:55.514Z,23.1
2022-08-19T11:17:57.028Z,23.29
2022-08-19T11:19:58.471Z,23.27
2022-08-19T11:22:00.147Z,23.35
2022-08-19T11:24:00.836Z,23.34
2022-08-19T11:26:02.277Z,23.29
2022-08-19T11:28:03.952Z,23.37
2022-08-19T11:30:05.069Z,23.39
2022-08-19T11:32:05.867Z,23.4
2022-08-19T11:34:06.819Z,23.4
2022-08-19T11:36:08.187Z,23.39
2022-08-19T11:38:10.009Z,23.53
2022-08-19T11:40:11.052Z,23.52
2022-08-19T11:42:11.716Z,23.61
2022-08-19T11:44:13.382Z,23.72
2022-08-19T11:46:14.898Z,23.76
2022-08-19T11:48:16.004Z,23.89
2022-08-19T11:50:17.419Z,23.82
2022-08-19T11:52:18.822Z,23.8
2022-08-19T11:54:20.154Z,23.59
2022-08-19T11:56:21.877Z,23.56
2022-08-19T11:58:23.287Z,23.69
2022-08-19T12:00:24.358Z,23.76
2022-08-19T12:02:25.296Z,23.59
2022-08-19T12:04:26.219Z,23.4
2022-08-19T12:06:27.997Z,23.56
2022-08-19T12:08:29.507Z,23.67
2022-08-19T12:10:30.374Z,23.66
2022-08-19T12:12:40.306Z,23.8
2022-08-19T12:14:32.442Z,23.79
2022-08-19T12:16:33.388Z,23.77
2022-08-19T12:18:34.694Z,23.79
2022-08-19T12:20:35.572Z,23.83
2022-08-19T12:22:37.118Z,24.02
2022-08-19T12:24:38.558Z,24.16
2022-08-19T12:26:52.374Z,24.09
2022-08-19T12:28:41.407Z,24.11
2022-08-19T12:30:42.880Z,23.88
2022-08-19T12:32:44.367Z,24.03
2022-08-19T12:34:45.407Z,24.09
2022-08-19T12:36:46.678Z,24.11
2022-08-19T12:38:47.718Z,24.15
2022-08-19T12:40:49.321Z,24.07
2022-08-19T12:42:50.598Z,24.03
2022-08-19T12:44:52.218Z,24.12
2022-08-19T12:46:53.758Z,24.11
2022-08-19T12:48:55.335Z,24.29
2022-08-19T12:50:55.543Z,24.36
2022-08-19T12:52:56.987Z,24.42
2022-08-19T12:54:57.804Z,24.59
2022-08-19T12:56:59.240Z,24.54
2022-08-19T12:59:00.355Z,24.49
2022-08-19T13:01:01.619Z,24.62
2022-08-19T13:03:03.233Z,24.95
2022-08-19T13:05:04.201Z,25.27
2022-08-19T13:07:06.032Z,25.27
2022-08-19T13:09:07.668Z,25.26
2022-08-19T13:11:08.766Z,25.38
2022-08-19T13:13:10.398Z,25.3
2022-08-19T13:15:11.715Z,25.28
2022-08-19T13:17:12.673Z,25.2
2022-08-19T13:19:13.569Z,24.92
2022-08-19T13:21:14.878Z,25.7
2022-08-19T13:23:16.464Z,26.18
2022-08-19T13:25:17.342Z,26.49
2022-08-19T13:27:19.079Z,26.26
2022-08-19T13:29:20.033Z,25.87
2022-08-19T13:31:21.852Z,26.35
2022-08-19T13:33:22.881Z,26.05
2022-08-19T13:35:23.770Z,25.77
2022-08-19T13:37:25.045Z,25.72
2022-08-19T13:39:26.715Z,25.33
2022-08-19T13:41:27.885Z,25.55
2022-08-19T13:43:29.609Z,25.14
2022-08-19T13:45:31.136Z,25.74
2022-08-19T13:47:32.206Z,25.71
2022-08-19T13:49:33.522Z,25.6
2022-08-19T13:51:34.488Z,26.24
2022-08-19T13:53:35.620Z,25.87
2022-08-19T13:55:36.534Z,26.18
2022-08-19T13:57:38.046Z,26.23
2022-08-19T13:59:38.908Z,25.88
2022-08-19T14:01:39.889Z,25.57
2022-08-19T14:03:41.568Z,25.73
2022-08-19T14:05:42.356Z,26
2022-08-19T14:07:43.166Z,25.87
2022-08-19T14:09:44.080Z,25.77
2022-08-19T14:11:44.897Z,25.42
2022-08-19T14:13:46.361Z,25.34
2022-08-19T14:15:47.816Z,25.51
2022-08-19T14:17:49.162Z,25.53
2022-08-19T14:19:50.080Z,25.44
2022-08-19T14:21:51.639Z,25.4
2022-08-19T14:23:52.452Z,25.52
2022-08-19T14:25:54.126Z,25.64
2022-08-19T14:27:55.823Z,25.65
2022-08-19T14:29:56.404Z,25.55
2022-08-19T14:31:57.786Z,25.8
2022-08-19T14:33:58.865Z,25.69
2022-08-19T14:36:00.091Z,25.75
2022-08-19T14:38:01.077Z,25.93
2022-08-19T14:40:01.953Z,25.6
2022-08-19T14:42:02.885Z,25.58
2022-08-19T14:44:04.529Z,25.8
2022-08-19T14:46:06.085Z,25.55
2022-08-19T14:48:07.488Z,25.6
2022-08-19T14:48:51.928Z,25.59
2022-08-19T14:50:52.774Z,25.38
2022-08-19T14:52:54.046Z,25.61
2022-08-19T14:54:55.907Z,25.57
2022-08-19T14:56:57.105Z,25.76
2022-08-19T14:58:58.448Z,25.79
2022-08-19T15:00:59.493Z,25.6
2022-08-19T15:03:01.182Z,25.55
2022-08-19T15:05:03.075Z,25.53
2022-08-19T15:07:04.147Z,25.63
2022-08-19T15:09:05.022Z,25.59
2022-08-19T15:11:06.353Z,25.8
2022-08-19T15:13:08.065Z,25.97
2022-08-19T15:15:09.394Z,25.84
2022-08-19T15:17:10.509Z,25.87
2022-08-19T15:19:11.755Z,25.99
2022-08-19T15:21:13.021Z,26.08
2022-08-19T15:25:15.647Z,25.8
2022-08-19T15:27:16.931Z,25.77
2022-08-19T15:29:18.572Z,25.74
2022-08-19T15:31:25.323Z,25.69
2022-08-19T15:33:21.974Z,25.6
2022-08-19T15:35:23.691Z,25.52
2022-08-19T15:37:25.318Z,25.38
2022-08-19T15:39:26.969Z,25.34
2022-08-19T15:41:28.331Z,25.28
2022-08-19T15:43:29.562Z,25.28
2022-08-19T15:45:32.259Z,25.23
2022-08-19T15:47:34.506Z,25.2
2022-08-19T15:49:32.517Z,25.11
2022-08-19T15:51:33.668Z,25.04
2022-08-19T15:53:35.047Z,24.87
2022-08-19T15:55:36.468Z,24.84
2022-08-19T15:57:37.908Z,24.51
2022-08-19T15:59:40.773Z,24.12
2022-08-19T16:01:41.419Z,23.74
2022-08-19T16:05:43.599Z,23.42
2022-08-19T16:07:44.996Z,23.33
2022-08-19T16:09:45.902Z,23.31
2022-08-19T16:11:46.961Z,23.31
2022-08-19T16:13:47.885Z,23.33
2022-08-19T16:15:49.646Z,23.34
2022-08-19T16:17:56.892Z,23.35
2022-08-19T16:19:53.024Z,23.34
2022-08-19T16:21:54.813Z,23.38
2022-08-19T16:23:55.697Z,23.34
2022-08-19T16:25:56.968Z,23.31
2022-08-19T16:28:06.928Z,23.31
2022-08-19T16:29:59.591Z,23.31
2022-08-19T16:32:00.820Z,23.45
2022-08-19T16:34:02.267Z,23.48
2022-08-19T16:36:03.985Z,23.46
2022-08-19T16:38:05.170Z,23.52
2022-08-19T16:40:06.636Z,23.57
2022-08-19T16:42:07.806Z,23.46
2022-08-19T16:44:09.273Z,23.49
2022-08-19T16:46:10.334Z,23.49
2022-08-19T16:48:12.007Z,23.51
2022-08-19T16:50:13.608Z,23.48
2022-08-19T16:52:15.065Z,23.56
2022-08-19T16:54:16.405Z,23.46
2022-08-19T16:56:17.577Z,23.4
2022-08-19T16:58:19.175Z,23.42
2022-08-19T17:00:20.421Z,23.36
2022-08-19T17:02:22.001Z,23.29
2022-08-19T17:04:23.369Z,23.26
2022-08-19T17:06:25.079Z,23.2
2022-08-19T17:08:26.637Z,23.17
2022-08-19T17:10:35.716Z,23.14
2022-08-19T17:12:30.688Z,23.11
2022-08-19T17:14:29.986Z,23.04
2022-08-19T17:16:31.700Z,22.96
2022-08-19T17:18:32.733Z,22.92
2022-08-19T17:20:34.467Z,22.89
2022-08-19T17:22:35.508Z,22.9
2022-08-19T17:24:36.683Z,22.87
2022-08-19T17:26:38.379Z,22.82
2022-08-19T17:28:40.078Z,22.84
2022-08-19T17:30:41.851Z,22.8
2022-08-19T17:32:42.880Z,22.68
2022-08-19T17:34:44.352Z,22.76
2022-08-19T17:36:45.518Z,22.66
2022-08-19T17:38:47.352Z,22.63
2022-08-19T17:40:48.218Z,22.64
2022-08-19T17:42:49.318Z,22.58
2022-08-19T17:44:51.080Z,22.54
2022-08-19T17:48:53.069Z,22.51
2022-08-19T17:50:54.250Z,22.48
2022-08-19T17:52:55.276Z,22.4
2022-08-19T17:54:56.704Z,22.38
2022-08-19T17:56:58.236Z,22.31
2022-08-19T17:59:01.585Z,22.32
2022-08-19T18:01:01.457Z,22.3
2022-08-19T18:03:02.792Z,22.28
2022-08-19T18:05:03.669Z,22.25
2022-08-19T18:07:04.631Z,22.21
2022-08-19T18:09:06.449Z,22.2
2022-08-19T18:11:07.666Z,22.18
2022-08-19T18:13:10.043Z,22.13
2022-08-19T18:15:10.368Z,22.08
2022-08-19T18:17:11.440Z,22.05
2022-08-19T18:19:12.739Z,22.04
2022-08-19T18:21:14.309Z,22.01
2022-08-19T18:23:41.137Z,21.97
2022-08-19T18:25:16.250Z,21.95
2022-08-19T18:27:17.664Z,21.91
2022-08-19T18:29:19.111Z,21.87
2022-08-19T18:31:20.628Z,21.83
2022-08-19T18:33:22.214Z,21.85
2022-08-19T18:35:23.359Z,21.79
2022-08-19T18:37:24.540Z,21.79
2022-08-19T18:39:25.528Z,21.75
2022-08-19T18:41:26.572Z,21.68
2022-08-19T18:43:28.167Z,21.71
2022-08-19T18:45:29.265Z,21.64
2022-08-19T18:47:30.788Z,21.57
2022-08-19T18:49:31.978Z,21.57
2022-08-19T18:51:33.626Z,21.55
2022-08-19T18:53:34.866Z,21.48
2022-08-19T18:55:36.216Z,21.46
2022-08-19T18:57:37.351Z,21.52
2022-08-19T18:59:38.825Z,21.51
2022-08-19T19:01:40.479Z,21.46
2022-08-19T19:03:41.802Z,21.44
2022-08-19T19:05:43.467Z,21.41
2022-08-19T19:07:44.490Z,21.38
2022-08-19T19:09:46.198Z,21.34
2022-08-19T19:11:47.596Z,21.36
2022-08-19T19:13:48.568Z,21.33
2022-08-19T19:15:49.603Z,21.31
2022-08-19T19:17:51.166Z,21.28
2022-08-19T19:20:00.460Z,21.22
2022-08-19T19:21:53.539Z,21.18
2022-08-19T19:23:54.368Z,21.17
2022-08-19T19:25:55.796Z,21.1
2022-08-19T19:29:58.514Z,21.02
2022-08-19T19:32:00.229Z,21.03
2022-08-19T19:34:01.374Z,21
2022-08-19T19:36:03.046Z,20.99
2022-08-19T19:38:04.512Z,20.94
2022-08-19T19:40:05.981Z,20.87
2022-08-19T19:42:07.242Z,20.86
2022-08-19T19:44:23.533Z,20.82
2022-08-19T19:46:10.275Z,20.81
2022-08-19T19:48:11.428Z,20.83
2022-08-19T19:50:15.075Z,20.8
2022-08-19T19:52:14.230Z,20.79
2022-08-19T19:54:15.866Z,20.74
2022-08-19T19:56:17.351Z,20.76
2022-08-19T19:58:18.293Z,20.72
2022-08-19T20:00:20.028Z,20.7
2022-08-19T20:02:21.206Z,20.7
2022-08-19T20:04:22.572Z,20.71
2022-08-19T20:06:24.129Z,20.62
2022-08-19T20:08:25.028Z,20.58
2022-08-19T20:10:26.561Z,20.59
2022-08-19T20:12:28.203Z,20.55
2022-08-19T20:14:29.393Z,20.52
2022-08-19T20:16:30.320Z,20.43
2022-08-19T20:18:32.029Z,20.51
2022-08-19T20:20:33.567Z,20.45
2022-08-19T20:22:34.578Z,20.41
2022-08-19T20:24:35.909Z,20.38
2022-08-19T20:26:37.406Z,20.38
2022-08-19T20:28:38.679Z,20.33
2022-08-19T20:30:40.463Z,20.29
2022-08-19T20:32:41.089Z,20.28
2022-08-19T20:34:42.431Z,20.28
2022-08-19T20:36:43.908Z,20.27
2022-08-19T20:38:45.027Z,20.22
2022-08-19T20:40:46.293Z,20.22
2022-08-19T20:42:47.416Z,20.18
2022-08-19T20:44:48.819Z,20.22
2022-08-19T20:46:54.332Z,20.15
2022-08-19T20:48:50.788Z,20.14
2022-08-19T20:50:52.127Z,20.11
2022-08-19T20:52:53.795Z,20.06
2022-08-19T20:54:55.323Z,20.03
2022-08-19T20:56:56.985Z,19.95
2022-08-19T20:59:00.049Z,19.92
2022-08-19T21:01:00.377Z,19.92
2022-08-19T21:03:01.767Z,19.89
2022-08-19T21:05:03.022Z,19.88
2022-08-19T21:07:04.169Z,19.84
2022-08-19T21:09:05.151Z,19.82
2022-08-19T21:11:06.696Z,19.81
2022-08-19T21:13:07.656Z,19.79
2022-08-19T21:15:09.108Z,19.73
2022-08-19T21:17:10.670Z,19.72
2022-08-19T21:19:11.873Z,19.6
2022-08-19T21:21:12.830Z,19.54
2022-08-19T21:23:14.210Z,19.47
2022-08-19T21:25:15.710Z,19.42
2022-08-19T21:27:16.923Z,19.41
2022-08-19T21:29:18.736Z,19.38
2022-08-19T21:31:20.258Z,19.32
2022-08-19T21:33:21.521Z,19.29
2022-08-19T21:35:22.880Z,19.24
2022-08-19T21:38:08.495Z,19.16
2022-08-19T21:40:09.936Z,19.18
2022-08-19T21:42:11.459Z,19.16
2022-08-19T21:44:12.479Z,19.14
2022-08-19T21:48:15.055Z,19.11
2022-08-19T21:50:16.669Z,19.13
2022-08-19T21:52:18.089Z,19.08
2022-08-19T21:54:19.856Z,19.06
2022-08-19T21:56:21.427Z,19.05
2022-08-19T21:58:28.435Z,19.06
2022-08-19T22:00:24.484Z,19.04
2022-08-19T22:02:25.618Z,19
2022-08-19T22:04:26.785Z,18.91
2022-08-19T22:06:27.962Z,18.88
2022-08-19T22:08:29.720Z,18.91
2022-08-19T22:10:31.139Z,18.86
2022-08-19T22:12:32.381Z,18.86
2022-08-19T22:14:33.681Z,18.79
2022-08-19T22:16:34.833Z,18.77
2022-08-19T22:18:36.626Z,18.86
2022-08-19T22:20:38.301Z,18.97
2022-08-19T22:22:39.547Z,19.05
2022-08-19T22:24:41.029Z,19.06
2022-08-19T22:26:42.497Z,19.03
2022-08-19T22:28:43.719Z,19.05
2022-08-19T22:30:45.587Z,19.07
2022-08-19T22:32:46.530Z,19.15
2022-08-19T22:34:48.234Z,19.22
2022-08-19T22:36:50.033Z,19.24
2022-08-19T22:38:51.617Z,19.12
2022-08-19T22:40:52.518Z,19.06
2022-08-19T22:42:54.238Z,18.96
2022-08-19T22:44:55.276Z,18.97
2022-08-19T22:46:56.634Z,19.02
2022-08-19T22:49:00.964Z,18.91
2022-08-19T22:50:59.333Z,18.83
2022-08-19T22:53:00.662Z,18.81
2022-08-19T22:55:02.058Z,18.78
2022-08-19T22:57:03.818Z,18.72
2022-08-19T22:59:05.431Z,18.71
2022-08-19T23:01:16.349Z,18.75
2022-08-19T23:03:08.205Z,18.75
2022-08-19T23:05:09.455Z,18.79
2022-08-19T23:07:10.657Z,18.8
2022-08-19T23:09:16.541Z,18.81
2022-08-19T23:11:14.164Z,18.83
2022-08-19T23:13:15.104Z,18.82
2022-08-19T23:15:16.698Z,18.78
2022-08-19T23:17:17.630Z,18.72
2022-08-19T23:19:18.771Z,18.71
2022-08-19T23:21:20.042Z,18.6
2022-08-19T23:23:21.083Z,18.6
2022-08-19T23:25:21.958Z,18.61
2022-08-19T23:27:23.124Z,18.54
2022-08-19T23:29:24.586Z,18.45
2022-08-19T23:31:25.831Z,18.4
2022-08-19T23:33:39.782Z,18.55
2022-08-19T23:35:28.902Z,18.58
2022-08-19T23:37:29.861Z,18.62
2022-08-19T23:39:31.765Z,18.56
2022-08-19T23:41:32.590Z,18.48
2022-08-19T23:43:34.205Z,18.46
2022-08-19T23:45:35.536Z,18.35
2022-08-19T23:47:36.394Z,18.34
2022-08-19T23:49:37.231Z,18.3
2022-08-19T23:51:38.118Z,18.22
2022-08-19T23:53:39.161Z,18.22
2022-08-19T23:55:40.605Z,18.08
2022-08-19T23:57:42.246Z,18
2022-08-19T23:59:43.145Z,17.91
